| time (UTC) | temp F | wind direction | speed knots | gust knots | rain 1hr in | rain 24hr in | rain mn in | humidity % | barometer mb |
| 20260505114403 | 38 | 38 | 7.8 | 17.4 | 0.02 | 0.01 | 0.01 | 90 | 1012.9 |
| 20260505113859 | 39 | 62 | 7.8 | 11.3 | 0.00 | 0.01 | 0.01 | 90 | 1012.8 |
| 20260505113356 | 39 | 35 | 2.6 | 9.6 | 0.02 | 0.01 | 0.01 | 91 | 1012.8 |
| 20260505112852 | 40 | 41 | 6.1 | 7.8 | 0.00 | 0.00 | 0.00 | 91 | 1013.0 |
| 20260505112350 | 40 | 38 | 5.2 | 13.0 | 0.00 | 0.00 | 0.00 | 91 | 1012.7 |
| 20260505111845 | 40 | 77 | 0.9 | 8.7 | 0.00 | 0.00 | 0.00 | 92 | 1012.7 |
| 20260505111340 | 40 | 55 | 2.6 | 11.3 | 0.00 | 0.00 | 0.00 | 92 | 1012.5 |
| 20260505110837 | 40 | 58 | 5.2 | 10.4 | 0.00 | 0.00 | 0.00 | 92 | 1012.4 |
| 20260505110334 | 41 | 72 | 4.3 | 10.4 | 0.00 | 0.00 | 0.00 | 91 | 1012.2 |
| 20260505101809 | 43 | 51 | 5.2 | 7.8 | 0.00 | 0.00 | 0.00 | 89 | 1011.5 |
| 20260505101304 | 43 | 164 | 2.6 | 9.6 | 0.00 | 0.00 | 0.00 | 89 | 1011.4 |
| 20260505100801 | 43 | 75 | 6.1 | 7.8 | 0.00 | 0.00 | 0.00 | 89 | 1011.3 |
| 20260505100257 | 44 | 38 | 3.5 | 10.4 | 0.00 | 0.00 | 0.00 | 89 | 1011.0 |
| 20260505095753 | 44 | 73 | 3.5 | 8.7 | 0.00 | 0.00 | 0.00 | 89 | 1010.9 |
| 20260505095251 | 44 | 46 | 5.2 | 9.6 | 0.00 | 0.00 | 0.00 | 89 | 1011.3 |
| 20260505094746 | 44 | 35 | 5.2 | 9.6 | 0.00 | 0.00 | 0.00 | 89 | 1011.3 |
| 20260505094243 | 45 | 29 | 2.6 | 6.1 | 0.00 | 0.00 | 0.00 | 88 | 1011.3 |
| 20260505093739 | 45 | 37 | 2.6 | 9.6 | 0.00 | 0.00 | 0.00 | 87 | 1011.0 |
| 20260505093237 | 45 | 36 | 2.6 | 7.8 | 0.00 | 0.00 | 0.00 | 86 | 1011.3 |
| 20260505092733 | 46 | 40 | 3.5 | 4.3 | 0.00 | 0.00 | 0.00 | 85 | 1010.9 |
| 20260505092232 | 46 | 66 | 2.6 | 3.5 | 0.00 | 0.00 | 0.00 | 84 | 1011.1 |
| 20260505091729 | 46 | 45 | 1.7 | 3.5 | 0.00 | 0.00 | 0.00 | 84 | 1011.0 |
| 20260505091228 | 46 | 75 | 1.7 | 4.3 | 0.00 | 0.00 | 0.00 | 85 | 1010.9 |
| 20260505090725 | 47 | 64 | 3.5 | 3.5 | 0.00 | 0.00 | 0.00 | 84 | 1011.0 |
| 20260505090223 | 47 | 75 | 4.3 | 5.2 | 0.00 | 0.00 | 0.00 | 82 | 1011.0 |
| 20260505085719 | 47 | 69 | 3.5 | 5.2 | 0.00 | 0.00 | 0.00 | 81 | 1010.8 |
| 20260505085218 | 47 | 45 | 2.6 | 3.5 | 0.00 | 0.00 | 0.00 | 81 | 1011.0 |
| 20260505084715 | 47 | 94 | 2.6 | 4.3 | 0.00 | 0.00 | 0.00 | 81 | 1011.4 |
| 20260505084214 | 47 | 5 | 5.2 | 5.2 | 0.00 | 0.00 | 0.00 | 80 | 1011.3 |
| 20260505083710 | 47 | 349 | 0.0 | 4.3 | 0.00 | 0.00 | 0.00 | 80 | 1011.3 |
| 20260505083207 | 47 | 25 | 3.5 | 5.2 | 0.00 | 0.00 | 0.00 | 79 | 1011.3 |
| 20260505082703 | 47 | 29 | 2.6 | 6.1 | 0.00 | 0.00 | 0.00 | 83 | 1011.4 |
| 20260505082200 | 47 | 60 | 0.0 | 2.6 | 0.00 | 0.00 | 0.00 | 87 | 1011.6 |
| 20260505081656 | 47 | 36 | 1.7 | 2.6 | 0.00 | 0.00 | 0.00 | 87 | 1011.5 |
| 20260505081154 | 47 | 15 | 0.0 | 0.0 | 0.00 | 0.00 | 0.00 | 88 | 1011.5 |
| 20260505080651 | 47 | 53 | 1.7 | 2.6 | 0.00 | 0.00 | 0.00 | 87 | 1011.5 |
| 20260505080146 | 48 | 71 | 1.7 | 2.6 | 0.00 | 0.00 | 0.00 | 86 | 1011.0 |
| 20260505075642 | 48 | 77 | 2.6 | 2.6 | 0.00 | 0.00 | 0.00 | 86 | 1011.4 |
| 20260505075139 | 48 | 128 | 3.5 | 3.5 | 0.00 | 0.00 | 0.00 | 86 | 1011.3 |
| 20260505074636 | 48 | 127 | 1.7 | 4.3 | 0.00 | 0.00 | 0.00 | 85 | 1011.3 |
| 20260505074133 | 48 | 130 | 3.5 | 3.5 | 0.00 | 0.00 | 0.00 | 85 | 1011.4 |
| 20260505073631 | 48 | 146 | 2.6 | 7.8 | 0.00 | 0.00 | 0.00 | 86 | 1011.1 |
| 20260505073129 | 48 | 183 | 1.7 | 2.6 | 0.00 | 0.00 | 0.00 | 90 | 1011.5 |
| 20260505072624 | 48 | 162 | 1.7 | 3.5 | 0.00 | 0.00 | 0.00 | 92 | 1011.5 |
| 20260505072121 | 48 | 105 | 0.0 | 1.7 | 0.00 | 0.00 | 0.00 | 92 | 1011.5 |
| 20260505071617 | 48 | 151 | 0.9 | 1.7 | 0.00 | 0.00 | 0.00 | 92 | 1011.5 |
| 20260505071115 | 48 | 200 | 0.0 | 1.7 | 0.00 | 0.00 | 0.00 | 93 | 1011.8 |
| 20260505070612 | 48 | 151 | 0.0 | 1.7 | 0.00 | 0.00 | 0.00 | 93 | 1011.6 |
| 20260505070108 | 48 | 120 | 0.0 | 1.7 | 0.00 | 0.00 | 0.00 | 93 | 1011.5 |
| 20260505065604 | 48 | 165 | 0.0 | 0.9 | 0.00 | 0.00 | 0.00 | 93 | 1011.8 |
| 20260505065101 | 48 | 172 | 0.0 | 0.0 | 0.00 | 0.00 | 0.00 | 93 | 1011.8 |
| 20260505064557 | 48 | 151 | 1.7 | 1.7 | 0.00 | 0.00 | 0.00 | 93 | 1011.7 |
| 20260505064056 | 48 | 151 | 0.9 | 1.7 | 0.00 | 0.00 | 0.00 | 93 | 1011.5 |
| 20260505063553 | 48 | 151 | 0.0 | 1.7 | 0.00 | 0.00 | 0.00 | 93 | 1011.7 |
| 20260505063049 | 48 | 145 | 0.0 | 1.7 | 0.00 | 0.00 | 0.00 | 92 | 1011.8 |
| 20260505062545 | 48 | 174 | 0.0 | 2.6 | 0.00 | 0.00 | 0.00 | 92 | 1011.7 |
| 20260505062043 | 48 | 96 | 0.0 | 1.7 | 0.00 | 0.00 | 0.00 | 92 | 1011.5 |
| 20260505061540 | 48 | 123 | 0.0 | 1.7 | 0.00 | 0.00 | 0.00 | 92 | 1011.7 |
| 20260505061038 | 48 | 188 | 0.0 | 0.9 | 0.00 | 0.00 | 0.00 | 92 | 1012.1 |
| 20260505060535 | 48 | 157 | 0.9 | 0.9 | 0.00 | 0.00 | 0.00 | 92 | 1011.8 |
| 20260505060032 | 48 | 145 | 0.0 | 1.7 | 0.00 | 0.00 | 0.00 | 92 | 1011.8 |
| 20260505055527 | 48 | 156 | 1.7 | 2.6 | 0.00 | 0.07 | 0.07 | 92 | 1012.0 |
| 20260505055024 | 48 | 157 | 0.9 | 1.7 | 0.00 | 0.07 | 0.07 | 92 | 1012.0 |
| 20260505054521 | 48 | 154 | 0.9 | 2.6 | 0.00 | 0.07 | 0.07 | 92 | 1011.7 |
| 20260505054020 | 48 | 154 | 0.0 | 1.7 | 0.00 | 0.07 | 0.07 | 92 | 1011.4 |
| 20260505053516 | 48 | 151 | 0.0 | 1.7 | 0.00 | 0.07 | 0.07 | 92 | 1011.7 |
| 20260505053013 | 48 | 173 | 0.9 | 1.7 | 0.00 | 0.07 | 0.07 | 92 | 1011.8 |
| 20260505052510 | 48 | 151 | 0.0 | 2.6 | 0.00 | 0.07 | 0.07 | 91 | 1011.8 |
| 20260505052008 | 48 | 185 | 0.9 | 2.6 | 0.00 | 0.07 | 0.07 | 91 | 1011.7 |
| 20260505051504 | 48 | 180 | 0.9 | 1.7 | 0.00 | 0.07 | 0.07 | 91 | 1011.8 |
| 20260505051003 | 48 | 173 | 1.7 | 3.5 | 0.02 | 0.07 | 0.07 | 91 | 1011.7 |
| 20260505050500 | 48 | 198 | 1.7 | 5.2 | 0.05 | 0.07 | 0.07 | 91 | 1012.0 |
| 20260505041428 | 48 | 265 | 2.6 | 4.3 | 0.00 | 0.06 | 0.06 | 92 | 1012.3 |
| 20260505040925 | 47 | 273 | 6.1 | 7.8 | 0.02 | 0.06 | 0.06 | 91 | 1012.1 |
| 20260505040422 | 47 | 273 | 11.3 | 11.3 | 0.09 | 0.06 | 0.06 | 91 | 1012.2 |
| 20260505035919 | 48 | 278 | 7.0 | 11.3 | 0.17 | 0.05 | 0.05 | 90 | 1012.1 |
| 20260505035415 | 48 | 247 | 5.2 | 13.9 | 0.12 | 0.04 | 0.04 | 88 | 1012.1 |
| 20260505034912 | 48 | 255 | 3.5 | 13.0 | 0.02 | 0.02 | 0.02 | 84 | 1012.2 |
| 20260505034409 | 51 | 233 | 15.6 | 16.5 | 0.02 | 0.02 | 0.02 | 78 | 1012.0 |
| 20260505033906 | 52 | 190 | 5.2 | 9.6 | 0.00 | 0.02 | 0.02 | 71 | 1011.8 |
| 20260505033403 | 52 | 264 | 2.6 | 8.7 | 0.00 | 0.02 | 0.02 | 67 | 1011.7 |
| 20260505032901 | 53 | 334 | 6.1 | 7.0 | 0.00 | 0.02 | 0.02 | 64 | 1011.5 |
| 20260505032357 | 53 | 350 | 2.6 | 9.6 | 0.00 | 0.02 | 0.02 | 64 | 1011.4 |
| 20260505031854 | 53 | 23 | 2.6 | 6.1 | 0.00 | 0.02 | 0.02 | 64 | 1011.3 |
| 20260505031351 | 53 | 23 | 1.7 | 3.5 | 0.00 | 0.02 | 0.02 | 64 | 1011.0 |
| 20260505030848 | 53 | 71 | 1.7 | 2.6 | 0.00 | 0.02 | 0.02 | 63 | 1011.3 |
| 20260505030344 | 53 | 327 | 1.7 | 5.2 | 0.00 | 0.02 | 0.02 | 62 | 1011.1 |
| 20260505025839 | 53 | 333 | 7.0 | 7.0 | 0.00 | 0.02 | 0.02 | 64 | 1010.8 |
| 20260505025337 | 53 | 339 | 2.6 | 7.8 | 0.00 | 0.02 | 0.02 | 63 | 1010.7 |
| 20260505024836 | 53 | 323 | 2.6 | 5.2 | 0.00 | 0.02 | 0.02 | 63 | 1010.8 |
| 20260505024333 | 53 | 20 | 0.9 | 6.1 | 0.00 | 0.02 | 0.02 | 62 | 1010.5 |
| 20260505023830 | 53 | 39 | 6.1 | 12.2 | 0.00 | 0.02 | 0.02 | 61 | 1010.4 |
| 20260505023327 | 53 | 16 | 6.1 | 7.8 | 0.00 | 0.02 | 0.02 | 60 | 1010.4 |
| 20260505022824 | 54 | 71 | 3.5 | 9.6 | 0.00 | 0.02 | 0.02 | 60 | 1010.4 |
| 20260505022321 | 54 | 21 | 8.7 | 8.7 | 0.00 | 0.02 | 0.02 | 58 | 1010.5 |
| 20260505021819 | 54 | 38 | 3.5 | 6.1 | 0.00 | 0.02 | 0.02 | 59 | 1010.4 |
| 20260505021315 | 54 | 37 | 5.2 | 6.1 | 0.00 | 0.02 | 0.02 | 59 | 1010.4 |
| 20260505020811 | 54 | 36 | 4.3 | 7.0 | 0.00 | 0.02 | 0.02 | 59 | 1010.3 |
| 20260505020307 | 54 | 57 | 3.5 | 7.8 | 0.00 | 0.02 | 0.02 | 58 | 1010.7 |
| 20260505015804 | 54 | 16 | 4.3 | 7.0 | 0.00 | 0.02 | 0.02 | 59 | 1010.1 |
| 20260505015301 | 53 | 47 | 2.6 | 5.2 | 0.00 | 0.02 | 0.02 | 62 | 1010.2 |
| 20260505014758 | 53 | 56 | 1.7 | 3.5 | 0.00 | 0.02 | 0.02 | 65 | 1010.2 |
| 20260505014255 | 53 | 42 | 2.6 | 3.5 | 0.00 | 0.02 | 0.02 | 62 | 1010.3 |
| 20260505013751 | 53 | 40 | 1.7 | 1.7 | 0.00 | 0.02 | 0.02 | 62 | 1009.7 |
| 20260505013249 | 54 | 23 | 0.0 | 1.7 | 0.00 | 0.02 | 0.02 | 64 | 1009.8 |
| 20260505012747 | 54 | 90 | 0.0 | 1.7 | 0.00 | 0.02 | 0.02 | 61 | 1010.1 |
| 20260505012244 | 54 | 162 | 2.6 | 3.5 | 0.02 | 0.02 | 0.02 | 62 | 1010.1 |
| 20260505011739 | 55 | 178 | 2.6 | 6.1 | 0.05 | 0.02 | 0.02 | 63 | 1010.2 |
| 20260505011237 | 56 | 279 | 0.0 | 0.9 | 0.02 | 0.01 | 0.01 | 55 | 1010.0 |
| 20260505010732 | 56 | 90 | 0.9 | 3.5 | 0.02 | 0.01 | 0.01 | 48 | 1010.0 |
| 20260505010229 | 56 | 285 | 0.9 | 12.2 | 0.02 | 0.01 | 0.01 | 48 | 1010.3 |
| 20260505005725 | 57 | 225 | 6.1 | 6.1 | 0.02 | 0.00 | 0.00 | 54 | 1010.1 |
| 20260505005222 | 57 | 228 | 6.1 | 13.0 | 0.02 | 0.00 | 0.00 | 47 | 1010.3 |
| 20260505004719 | 57 | 78 | 2.6 | 4.3 | 0.00 | 0.00 | 0.00 | 47 | 1010.3 |
| 20260505004216 | 58 | 247 | 3.5 | 11.3 | 0.00 | 0.00 | 0.00 | 47 | 1010.4 |
| 20260505003713 | 59 | 350 | 3.5 | 10.4 | 0.00 | 0.00 | 0.00 | 41 | 1010.1 |
| 20260505003211 | 60 | 50 | 4.3 | 5.2 | 0.00 | 0.00 | 0.00 | 39 | 1009.6 |
| 20260505002707 | 60 | 351 | 3.5 | 10.4 | 0.00 | 0.00 | 0.00 | 38 | 1009.8 |
| 20260505002205 | 60 | 303 | 2.6 | 8.7 | 0.00 | 0.00 | 0.00 | 37 | 1009.6 |
| 20260505001702 | 60 | 50 | 2.6 | 8.7 | 0.00 | 0.00 | 0.00 | 37 | 1009.5 |
| 20260505001159 | 61 | 23 | 4.3 | 14.8 | 0.00 | 0.00 | 0.00 | 36 | 1009.4 |
| 20260505000656 | 61 | 7 | 7.0 | 14.8 | 0.00 | 0.00 | 0.00 | 35 | 1009.1 |
| 20260505000154 | 61 | 19 | 6.1 | 7.8 | 0.00 | 0.00 | 0.00 | 36 | 1009.4 |
| 20260504235650 | 61 | 0 | 5.2 | 7.8 | 0.00 | 0.00 | 0.00 | 36 | 1009.3 |
| 20260504235146 | 62 | 348 | 7.0 | 9.6 | 0.00 | 0.00 | 0.00 | 35 | 1009.3 |
| 20260504234644 | 62 | 44 | 7.0 | 15.6 | 0.00 | 0.00 | 0.00 | 35 | 1009.1 |
| 20260504234141 | 63 | 357 | 1.7 | 6.1 | 0.00 | 0.00 | 0.00 | 33 | 1009.0 |
| 20260504233637 | 63 | 49 | 2.6 | 8.7 | 0.00 | 0.00 | 0.00 | 32 | 1009.0 |
| 20260504233133 | 63 | 40 | 5.2 | 13.9 | 0.00 | 0.00 | 0.00 | 32 | 1008.8 |
| 20260504232631 | 64 | 21 | 2.6 | 17.4 | 0.00 | 0.00 | 0.00 | 31 | 1008.8 |
| 20260504232128 | 64 | 335 | 5.2 | 8.7 | 0.00 | 0.00 | 0.00 | 31 | 1008.5 |
| 20260504231624 | 64 | 356 | 5.2 | 11.3 | 0.00 | 0.00 | 0.00 | 31 | 1008.9 |
| 20260504231120 | 64 | 320 | 3.5 | 6.1 | 0.00 | 0.00 | 0.00 | 31 | 1008.5 |
| 20260504230616 | 64 | 0 | 2.6 | 6.1 | 0.00 | 0.00 | 0.00 | 31 | 1008.5 |
| 20260504230116 | 64 | 11 | 4.3 | 9.6 | 0.00 | 0.00 | 0.00 | 32 | 1008.5 |
| 20260504225613 | 64 | 6 | 6.1 | 11.3 | 0.00 | 0.00 | 0.00 | 31 | 1008.7 |
| 20260504225109 | 64 | 356 | 4.3 | 13.0 | 0.00 | 0.00 | 0.00 | 31 | 1008.4 |
| 20260504224606 | 64 | 18 | 7.0 | 13.0 | 0.00 | 0.00 | 0.00 | 31 | 1008.5 |
| 20260504224103 | 64 | 42 | 5.2 | 7.0 | 0.00 | 0.00 | 0.00 | 31 | 1008.5 |
| 20260504223600 | 64 | 32 | 10.4 | 12.2 | 0.00 | 0.00 | 0.00 | 31 | 1008.5 |
| 20260504223056 | 63 | 40 | 11.3 | 18.2 | 0.00 | 0.00 | 0.00 | 32 | 1008.2 |
| 20260504222553 | 63 | 17 | 8.7 | 15.6 | 0.00 | 0.00 | 0.00 | 31 | 1008.2 |
| 20260504222050 | 63 | 21 | 17.4 | 27.8 | 0.00 | 0.00 | 0.00 | 31 | 1008.0 |
| 20260504221548 | 64 | 6 | 10.4 | 11.3 | 0.00 | 0.00 | 0.00 | 30 | 1008.2 |
| 20260504221044 | 64 | 344 | 3.5 | 13.0 | 0.00 | 0.00 | 0.00 | 30 | 1008.1 |
| 20260504220541 | 64 | 13 | 7.8 | 13.0 | 0.00 | 0.00 | 0.00 | 29 | 1008.0 |
| 20260504220038 | 64 | 12 | 7.0 | 11.3 | 0.00 | 0.00 | 0.00 | 30 | 1007.6 |
| 20260504215534 | 64 | 322 | 7.0 | 11.3 | 0.00 | 0.00 | 0.00 | 30 | 1007.6 |
| 20260504215032 | 64 | 58 | 11.3 | 15.6 | 0.00 | 0.00 | 0.00 | 30 | 1007.4 |
| 20260504214527 | 67 | 21 | 7.8 | 26.9 | 0.00 | 0.00 | 0.00 | 27 | 1007.4 |
| 20260504214024 | 67 | 10 | 4.3 | 6.1 | 0.00 | 0.00 | 0.00 | 24 | 1007.8 |
| 20260504213521 | 67 | 10 | 3.5 | 10.4 | 0.00 | 0.00 | 0.00 | 23 | 1007.6 |
| 20260504213018 | 67 | 9 | 4.3 | 13.0 | 0.00 | 0.00 | 0.00 | 24 | 1007.7 |
| 20260504212513 | 68 | 0 | 0.9 | 12.2 | 0.00 | 0.00 | 0.00 | 23 | 1007.8 |
| 20260504212011 | 68 | 2 | 2.6 | 7.8 | 0.00 | 0.00 | 0.00 | 23 | 1008.0 |
| 20260504211508 | 68 | 261 | 2.6 | 7.0 | 0.00 | 0.00 | 0.00 | 22 | 1007.7 |
| 20260504211005 | 68 | 0 | 1.7 | 7.8 | 0.00 | 0.00 | 0.00 | 24 | 1008.1 |
| 20260504210502 | 68 | 285 | 2.6 | 6.1 | 0.00 | 0.00 | 0.00 | 22 | 1008.1 |
| 20260504205958 | 68 | 30 | 7.0 | 9.6 | 0.00 | 0.00 | 0.00 | 23 | 1008.1 |
| 20260504205456 | 67 | 21 | 6.1 | 8.7 | 0.00 | 0.00 | 0.00 | 24 | 1008.1 |
| 20260504204954 | 67 | 307 | 4.3 | 11.3 | 0.00 | 0.00 | 0.00 | 24 | 1008.2 |
| 20260504204452 | 67 | 0 | 0.0 | 7.8 | 0.00 | 0.00 | 0.00 | 23 | 1008.1 |
| 20260504203951 | 67 | 349 | 0.0 | 8.7 | 0.00 | 0.00 | 0.00 | 23 | 1008.3 |
| 20260504203449 | 67 | 318 | 2.6 | 16.5 | 0.00 | 0.00 | 0.00 | 23 | 1008.0 |
| 20260504202944 | 68 | 0 | 2.6 | 5.2 | 0.00 | 0.00 | 0.00 | 24 | 1008.2 |
| 20260504202441 | 68 | 287 | 1.7 | 8.7 | 0.00 | 0.00 | 0.00 | 23 | 1008.2 |
| 20260504201938 | 67 | 281 | 7.8 | 12.2 | 0.00 | 0.00 | 0.00 | 24 | 1008.1 |
| 20260504201435 | 66 | 229 | 7.8 | 13.9 | 0.00 | 0.00 | 0.00 | 26 | 1008.4 |
| 20260504200933 | 67 | 275 | 0.0 | 10.4 | 0.00 | 0.00 | 0.00 | 25 | 1008.2 |
| 20260504200429 | 67 | 277 | 7.8 | 11.3 | 0.00 | 0.00 | 0.00 | 24 | 1008.4 |
| 20260504195926 | 67 | 233 | 1.7 | 13.9 | 0.00 | 0.00 | 0.00 | 24 | 1008.5 |
| 20260504195422 | 67 | 260 | 2.6 | 13.0 | 0.00 | 0.00 | 0.00 | 23 | 1008.4 |
| 20260504194919 | 67 | 266 | 3.5 | 7.0 | 0.00 | 0.00 | 0.00 | 23 | 1008.7 |
| 20260504194414 | 67 | 8 | 1.7 | 4.3 | 0.00 | 0.00 | 0.00 | 23 | 1008.5 |
| 20260504193911 | 67 | 190 | 1.7 | 8.7 | 0.00 | 0.00 | 0.00 | 22 | 1008.8 |
| 20260504193408 | 67 | 120 | 1.7 | 13.9 | 0.00 | 0.00 | 0.00 | 24 | 1008.5 |
| 20260504192907 | 68 | 235 | 13.9 | 17.4 | 0.00 | 0.00 | 0.00 | 22 | 1008.7 |
| 20260504192404 | 68 | 281 | 2.6 | 8.7 | 0.00 | 0.00 | 0.00 | 22 | 1008.5 |
| 20260504191902 | 69 | 217 | 7.8 | 9.6 | 0.00 | 0.00 | 0.00 | 19 | 1008.3 |
| 20260504191400 | 69 | 290 | 1.7 | 6.1 | 0.00 | 0.00 | 0.00 | 18 | 1008.5 |
| 20260504190855 | 69 | 349 | 2.6 | 5.2 | 0.00 | 0.00 | 0.00 | 19 | 1008.3 |
| 20260504190351 | 69 | 255 | 1.7 | 8.7 | 0.00 | 0.00 | 0.00 | 19 | 1008.2 |
| 20260504185848 | 69 | 266 | 1.7 | 2.6 | 0.00 | 0.00 | 0.00 | 19 | 1008.3 |
| 20260504185345 | 69 | 17 | 3.5 | 4.3 | 0.00 | 0.00 | 0.00 | 19 | 1008.2 |
| 20260504184841 | 70 | 2 | 2.6 | 8.7 | 0.00 | 0.00 | 0.00 | 20 | 1008.3 |
| 20260504184337 | 70 | 344 | 3.5 | 7.8 | 0.00 | 0.00 | 0.00 | 20 | 1008.3 |
| 20260504183833 | 70 | 237 | 6.1 | 6.1 | 0.00 | 0.00 | 0.00 | 20 | 1008.4 |
| 20260504183331 | 70 | 338 | 6.1 | 11.3 | 0.00 | 0.00 | 0.00 | 21 | 1008.3 |
| 20260504182828 | 71 | 317 | 3.5 | 10.4 | 0.00 | 0.00 | 0.00 | 20 | 1008.5 |
| 20260504182325 | 71 | 259 | 3.5 | 11.3 | 0.00 | 0.00 | 0.00 | 21 | 1008.2 |
| 20260504181822 | 72 | 340 | 7.0 | 12.2 | 0.00 | 0.00 | 0.00 | 20 | 1008.7 |
| 20260504181320 | 72 | 22 | 6.1 | 9.6 | 0.00 | 0.00 | 0.00 | 20 | 1008.4 |
| 20260504180819 | 72 | 261 | 4.3 | 8.7 | 0.00 | 0.00 | 0.00 | 21 | 1008.3 |
| 20260504180316 | 72 | 248 | 8.7 | 11.3 | 0.00 | 0.00 | 0.00 | 20 | 1008.5 |
| 20260504175814 | 71 | 340 | 4.3 | 13.0 | 0.00 | 0.00 | 0.00 | 19 | 1008.7 |
| 20260504175311 | 72 | 11 | 2.6 | 8.7 | 0.00 | 0.00 | 0.00 | 21 | 1008.5 |
| 20260504174809 | 73 | 335 | 2.6 | 6.1 | 0.00 | 0.00 | 0.00 | 20 | 1008.9 |
| 20260504174306 | 71 | 352 | 4.3 | 9.6 | 0.00 | 0.00 | 0.00 | 21 | 1008.7 |
| 20260504173803 | 72 | 281 | 5.2 | 8.7 | 0.00 | 0.00 | 0.00 | 22 | 1008.9 |
| 20260504173259 | 71 | 334 | 5.2 | 15.6 | 0.00 | 0.00 | 0.00 | 21 | 1008.8 |
| 20260504172756 | 71 | 7 | 8.7 | 16.5 | 0.00 | 0.00 | 0.00 | 21 | 1009.1 |
| 20260504172253 | 72 | 335 | 6.1 | 7.0 | 0.00 | 0.00 | 0.00 | 21 | 1009.1 |
| 20260504171749 | 72 | 266 | 6.1 | 7.8 | 0.00 | 0.00 | 0.00 | 21 | 1009.3 |
| 20260504171246 | 71 | 268 | 4.3 | 9.6 | 0.00 | 0.00 | 0.00 | 21 | 1009.1 |
| 20260504170743 | 71 | 354 | 2.6 | 7.8 | 0.00 | 0.00 | 0.00 | 22 | 1009.1 |
| 20260504170240 | 70 | 274 | 6.1 | 10.4 | 0.00 | 0.00 | 0.00 | 21 | 1009.0 |
| 20260504160159 | 69 | 237 | 2.6 | 7.8 | 0.00 | 0.00 | 0.00 | 22 | 1009.5 |
| 20260504151127 | 63 | 237 | 4.3 | 9.6 | 0.00 | 0.00 | 0.00 | 24 | 1010.1 |
| 20260504150624 | 63 | 294 | 5.2 | 10.4 | 0.00 | 0.00 | 0.00 | 24 | 1010.2 |
| 20260504150121 | 63 | 255 | 6.1 | 9.6 | 0.00 | 0.00 | 0.00 | 24 | 1010.2 |
| 20260504141049 | 56 | 227 | 6.1 | 7.8 | 0.00 | 0.00 | 0.00 | 33 | 1010.1 |
| 20260504140546 | 56 | 229 | 11.3 | 11.3 | 0.00 | 0.00 | 0.00 | 33 | 1010.2 |
| 20260504130510 | 51 | 159 | 1.7 | 2.6 | 0.00 | 0.00 | 0.00 | 41 | 1010.1 |